Terminal Aerodrome Forecast
Issued by NWS Portland, OR

Home | Current Version | Previous Version | Text Only | Print | Product List | Glossary On
Versions: 1 2 3 4 5 6 7 8 9 10 11 12 13 14 15 16 17 18 19 20 21 22 23 24 25 26 27 28 29 30 31 32 33
012
FTUS46 KPQR 241139
TAFEUG
TAF
KEUG 241139Z 2412/2512 VRB03KT 6SM BR BKN012 OVC020
      TEMPO 2414/2416 3SM BR SCT007 BKN012
     FM241600 VRB03KT P6SM BKN015 BKN025
     FM241800 33006KT P6SM SCT025 BKN050
     FM242200 35009KT P6SM SCT050
     FM250500 24004KT P6SM SCT025=

USA.gov is the U.S. government's official web portal to all federal, state and local government web resources and services.